sensor_id;sensor_type;location;lat;lon;timestamp;P1;durP1;ratioP1;P2;durP2;ratioP2
11111;SDS011;5609;49.466;8.468;2022-11-25T00:00:10;9.33;;;4.30;;
11111;SDS011;5609;49.466;8.468;2022-11-25T00:02:42;12.30;;;4.63;;
11111;SDS011;5609;49.466;8.468;2022-11-25T00:05:09;8.70;;;4.23;;
11111;SDS011;5609;49.466;8.468;2022-11-25T00:07:36;9.47;;;4.43;;
11111;SDS011;5609;49.466;8.468;2022-11-25T00:10:04;10.63;;;4.13;;
11111;SDS011;5609;49.466;8.468;2022-11-25T00:12:31;10.87;;;4.40;;
11111;SDS011;5609;49.466;8.468;2022-11-25T00:14:58;7.93;;;3.77;;
11111;SDS011;5609;49.466;8.468;2022-11-25T00:17:25;7.83;;;3.63;;
11111;SDS011;5609;49.466;8.468;2022-11-25T00:19:54;6.83;;;3.63;;
11111;SDS011;5609;49.466;8.468;2022-11-25T00:22:21;10.17;;;3.67;;
11111;SDS011;5609;49.466;8.468;2022-11-25T00:24:48;9.47;;;4.03;;
11111;SDS011;5609;49.466;8.468;2022-11-25T00:27:15;10.10;;;4.43;;
11111;SDS011;5609;49.466;8.468;2022-11-25T00:29:42;7.97;;;4.23;;
11111;SDS011;5609;49.466;8.468;2022-11-25T00:32:09;9.53;;;3.93;;
11111;SDS011;5609;49.466;8.468;2022-11-25T00:34:36;12.23;;;4.07;;
11111;SDS011;5609;49.466;8.468;2022-11-25T00:37:05;9.07;;;3.70;;
11111;SDS011;5609;49.466;8.468;2022-11-25T00:39:32;8.77;;;3.80;;
11111;SDS011;5609;49.466;8.468;2022-11-25T00:41:59;7.23;;;3.97;;
11111;SDS011;5609;49.466;8.468;2022-11-25T00:44:43;9.30;;;3.93;;
11111;SDS011;5609;49.466;8.468;2022-11-25T00:47:12;8.97;;;4.37;;
11111;SDS011;5609;49.466;8.468;2022-11-25T00:49:39;9.17;;;3.97;;
11111;SDS011;5609;49.466;8.468;2022-11-25T00:52:08;10.33;;;4.23;;
11111;SDS011;5609;49.466;8.468;2022-11-25T00:54:36;11.90;;;4.20;;
11111;SDS011;5609;49.466;8.468;2022-11-25T00:57:03;8.43;;;3.83;;
11111;SDS011;5609;49.466;8.468;2022-11-25T00:59:30;8.00;;;3.90;;
11111;SDS011;5609;49.466;8.468;2022-11-25T01:01:57;7.33;;;3.80;;
11111;SDS011;5609;49.466;8.468;2022-11-25T01:04:24;9.90;;;4.10;;
11111;SDS011;5609;49.466;8.468;2022-11-25T01:06:51;9.23;;;4.10;;
11111;SDS011;5609;49.466;8.468;2022-11-25T01:09:22;7.80;;;3.90;;
11111;SDS011;5609;49.466;8.468;2022-11-25T01:11:49;9.00;;;3.93;;
11111;SDS011;5609;49.466;8.468;2022-11-25T01:14:16;7.73;;;3.77;;
11111;SDS011;5609;49.466;8.468;2022-11-25T01:16:43;8.07;;;3.83;;
11111;SDS011;5609;49.466;8.468;2022-11-25T01:19:10;10.03;;;3.97;;
11111;SDS011;5609;49.466;8.468;2022-11-25T01:21:38;7.93;;;4.00;;
11111;SDS011;5609;49.466;8.468;2022-11-25T01:24:05;8.93;;;3.80;;
11111;SDS011;5609;49.466;8.468;2022-11-25T01:26:34;10.80;;;3.90;;
11111;SDS011;5609;49.466;8.468;2022-11-25T01:29:02;7.77;;;3.70;;
11111;SDS011;5609;49.466;8.468;2022-11-25T01:31:30;10.83;;;3.90;;
11111;SDS011;5609;49.466;8.468;2022-11-25T01:33:59;7.57;;;3.50;;
11111;SDS011;5609;49.466;8.468;2022-11-25T01:36:26;9.50;;;3.77;;
11111;SDS011;5609;49.466;8.468;2022-11-25T01:38:54;9.90;;;3.93;;
11111;SDS011;5609;49.466;8.468;2022-11-25T01:41:21;10.40;;;4.00;;
11111;SDS011;5609;49.466;8.468;2022-11-25T01:44:07;7.63;;;3.70;;
11111;SDS011;5609;49.466;8.468;2022-11-25T01:46:54;5.70;;;3.47;;
11111;SDS011;5609;49.466;8.468;2022-11-25T01:49:28;8.20;;;3.73;;
11111;SDS011;5609;49.466;8.468;2022-11-25T01:51:57;7.17;;;4.23;;
11111;SDS011;5609;49.466;8.468;2022-11-25T01:54:27;8.97;;;3.90;;
11111;SDS011;5609;49.466;8.468;2022-11-25T01:56:56;9.40;;;4.17;;
11111;SDS011;5609;49.466;8.468;2022-11-25T01:59:26;6.40;;;3.70;;
11111;SDS011;5609;49.466;8.468;2022-11-25T02:01:53;8.73;;;3.90;;
11111;SDS011;5609;49.466;8.468;2022-11-25T02:04:21;8.50;;;4.10;;
11111;SDS011;5609;49.466;8.468;2022-11-25T02:06:51;8.00;;;3.80;;
11111;SDS011;5609;49.466;8.468;2022-11-25T02:09:21;9.40;;;4.03;;
11111;SDS011;5609;49.466;8.468;2022-11-25T02:11:48;8.33;;;4.47;;
11111;SDS011;5609;49.466;8.468;2022-11-25T02:14:17;8.13;;;4.00;;
11111;SDS011;5609;49.466;8.468;2022-11-25T02:16:47;6.17;;;3.73;;
11111;SDS011;5609;49.466;8.468;2022-11-25T02:19:16;9.80;;;3.93;;
11111;SDS011;5609;49.466;8.468;2022-11-25T02:21:45;8.07;;;3.77;;
11111;SDS011;5609;49.466;8.468;2022-11-25T02:24:16;6.83;;;3.80;;
11111;SDS011;5609;49.466;8.468;2022-11-25T02:26:45;8.47;;;3.97;;
11111;SDS011;5609;49.466;8.468;2022-11-25T02:29:12;7.13;;;3.67;;
11111;SDS011;5609;49.466;8.468;2022-11-25T02:31:40;8.33;;;4.03;;
11111;SDS011;5609;49.466;8.468;2022-11-25T02:34:07;11.37;;;4.00;;
11111;SDS011;5609;49.466;8.468;2022-11-25T02:36:34;8.57;;;3.77;;
11111;SDS011;5609;49.466;8.468;2022-11-25T02:39:02;8.20;;;4.10;;
11111;SDS011;5609;49.466;8.468;2022-11-25T02:41:29;8.73;;;3.73;;
11111;SDS011;5609;49.466;8.468;2022-11-25T02:43:59;7.83;;;3.57;;
11111;SDS011;5609;49.466;8.468;2022-11-25T02:46:27;10.10;;;4.00;;
11111;SDS011;5609;49.466;8.468;2022-11-25T02:48:54;9.10;;;3.83;;
11111;SDS011;5609;49.466;8.468;2022-11-25T02:51:22;8.80;;;3.83;;
11111;SDS011;5609;49.466;8.468;2022-11-25T02:53:50;8.77;;;3.63;;
11111;SDS011;5609;49.466;8.468;2022-11-25T02:56:18;8.90;;;3.80;;
11111;SDS011;5609;49.466;8.468;2022-11-25T02:58:45;7.67;;;3.50;;
11111;SDS011;5609;49.466;8.468;2022-11-25T03:01:14;7.93;;;4.00;;
11111;SDS011;5609;49.466;8.468;2022-11-25T03:03:41;9.40;;;4.17;;
11111;SDS011;5609;49.466;8.468;2022-11-25T03:06:08;9.43;;;3.87;;
11111;SDS011;5609;49.466;8.468;2022-11-25T03:08:35;9.00;;;3.80;;
11111;SDS011;5609;49.466;8.468;2022-11-25T03:11:03;10.00;;;3.87;;
11111;SDS011;5609;49.466;8.468;2022-11-25T03:13:30;8.10;;;3.90;;
11111;SDS011;5609;49.466;8.468;2022-11-25T03:15:57;8.00;;;4.00;;
11111;SDS011;5609;49.466;8.468;2022-11-25T03:18:25;8.97;;;4.27;;
11111;SDS011;5609;49.466;8.468;2022-11-25T03:20:53;10.27;;;4.10;;
11111;SDS011;5609;49.466;8.468;2022-11-25T03:23:20;9.97;;;4.03;;
11111;SDS011;5609;49.466;8.468;2022-11-25T03:25:47;8.67;;;4.17;;
11111;SDS011;5609;49.466;8.468;2022-11-25T03:28:14;7.40;;;4.03;;
11111;SDS011;5609;49.466;8.468;2022-11-25T03:30:41;7.70;;;3.73;;
11111;SDS011;5609;49.466;8.468;2022-11-25T03:33:08;6.90;;;4.00;;
11111;SDS011;5609;49.466;8.468;2022-11-25T03:35:37;9.13;;;4.00;;
11111;SDS011;5609;49.466;8.468;2022-11-25T03:38:04;7.30;;;3.87;;
11111;SDS011;5609;49.466;8.468;2022-11-25T03:40:31;5.97;;;4.00;;
11111;SDS011;5609;49.466;8.468;2022-11-25T03:42:58;7.27;;;3.87;;
11111;SDS011;5609;49.466;8.468;2022-11-25T03:45:25;7.97;;;4.10;;
11111;SDS011;5609;49.466;8.468;2022-11-25T03:47:52;7.23;;;3.57;;
11111;SDS011;5609;49.466;8.468;2022-11-25T03:50:19;7.00;;;3.70;;
11111;SDS011;5609;49.466;8.468;2022-11-25T03:52:48;6.93;;;3.90;;
11111;SDS011;5609;49.466;8.468;2022-11-25T03:55:15;7.27;;;3.63;;
11111;SDS011;5609;49.466;8.468;2022-11-25T03:57:42;7.63;;;3.60;;
11111;SDS011;5609;49.466;8.468;2022-11-25T04:00:10;8.60;;;4.10;;
11111;SDS011;5609;49.466;8.468;2022-11-25T04:02:37;6.63;;;3.90;;
11111;SDS011;5609;49.466;8.468;2022-11-25T04:05:04;6.20;;;3.90;;
11111;SDS011;5609;49.466;8.468;2022-11-25T04:07:31;7.43;;;3.80;;
11111;SDS011;5609;49.466;8.468;2022-11-25T04:10:00;6.80;;;3.77;;
11111;SDS011;5609;49.466;8.468;2022-11-25T04:12:27;6.33;;;3.57;;
11111;SDS011;5609;49.466;8.468;2022-11-25T04:15:12;5.80;;;3.87;;
11111;SDS011;5609;49.466;8.468;2022-11-25T04:17:39;6.30;;;3.40;;
11111;SDS011;5609;49.466;8.468;2022-11-25T04:20:07;7.40;;;4.00;;
11111;SDS011;5609;49.466;8.468;2022-11-25T04:22:34;7.03;;;3.80;;
11111;SDS011;5609;49.466;8.468;2022-11-25T04:25:03;6.23;;;3.57;;
11111;SDS011;5609;49.466;8.468;2022-11-25T04:27:30;7.27;;;3.90;;
11111;SDS011;5609;49.466;8.468;2022-11-25T04:29:57;7.67;;;3.70;;
11111;SDS011;5609;49.466;8.468;2022-11-25T04:32:24;6.20;;;3.70;;
11111;SDS011;5609;49.466;8.468;2022-11-25T04:34:51;6.50;;;3.40;;
11111;SDS011;5609;49.466;8.468;2022-11-25T04:37:19;7.93;;;3.60;;
11111;SDS011;5609;49.466;8.468;2022-11-25T04:39:46;5.10;;;3.70;;
11111;SDS011;5609;49.466;8.468;2022-11-25T04:42:14;9.00;;;4.30;;
11111;SDS011;5609;49.466;8.468;2022-11-25T04:44:56;7.53;;;3.63;;
11111;SDS011;5609;49.466;8.468;2022-11-25T04:47:23;8.00;;;4.00;;
11111;SDS011;5609;49.466;8.468;2022-11-25T04:49:50;6.27;;;3.80;;
11111;SDS011;5609;49.466;8.468;2022-11-25T04:52:17;5.73;;;3.47;;
11111;SDS011;5609;49.466;8.468;2022-11-25T04:54:44;6.30;;;3.70;;
11111;SDS011;5609;49.466;8.468;2022-11-25T04:57:12;7.37;;;3.33;;
11111;SDS011;5609;49.466;8.468;2022-11-25T04:59:41;9.33;;;3.73;;
11111;SDS011;5609;49.466;8.468;2022-11-25T05:02:11;6.20;;;3.40;;
11111;SDS011;5609;49.466;8.468;2022-11-25T05:04:38;7.07;;;3.60;;
11111;SDS011;5609;49.466;8.468;2022-11-25T05:07:05;7.20;;;3.43;;
11111;SDS011;5609;49.466;8.468;2022-11-25T05:09:32;6.93;;;3.40;;
11111;SDS011;5609;49.466;8.468;2022-11-25T05:11:59;6.57;;;3.67;;
11111;SDS011;5609;49.466;8.468;2022-11-25T05:14:26;6.87;;;4.20;;
11111;SDS011;5609;49.466;8.468;2022-11-25T05:16:55;5.17;;;3.20;;
11111;SDS011;5609;49.466;8.468;2022-11-25T05:19:22;7.93;;;3.47;;
11111;SDS011;5609;49.466;8.468;2022-11-25T05:21:49;7.00;;;3.70;;
11111;SDS011;5609;49.466;8.468;2022-11-25T05:24:16;5.47;;;3.30;;
11111;SDS011;5609;49.466;8.468;2022-11-25T05:26:43;6.90;;;3.60;;
11111;SDS011;5609;49.466;8.468;2022-11-25T05:29:10;6.07;;;3.40;;
11111;SDS011;5609;49.466;8.468;2022-11-25T05:31:37;4.97;;;3.10;;
11111;SDS011;5609;49.466;8.468;2022-11-25T05:34:06;5.07;;;3.23;;
11111;SDS011;5609;49.466;8.468;2022-11-25T05:36:33;7.47;;;3.50;;
11111;SDS011;5609;49.466;8.468;2022-11-25T05:39:01;5.53;;;3.33;;
11111;SDS011;5609;49.466;8.468;2022-11-25T05:41:28;6.73;;;3.50;;
11111;SDS011;5609;49.466;8.468;2022-11-25T05:43:55;6.87;;;3.60;;
11111;SDS011;5609;49.466;8.468;2022-11-25T05:46:22;9.00;;;3.70;;
11111;SDS011;5609;49.466;8.468;2022-11-25T05:48:51;6.17;;;3.60;;
11111;SDS011;5609;49.466;8.468;2022-11-25T05:51:20;6.47;;;3.80;;
11111;SDS011;5609;49.466;8.468;2022-11-25T05:53:47;6.70;;;3.70;;
11111;SDS011;5609;49.466;8.468;2022-11-25T05:56:15;6.67;;;3.70;;
11111;SDS011;5609;49.466;8.468;2022-11-25T05:58:42;5.73;;;3.63;;
11111;SDS011;5609;49.466;8.468;2022-11-25T06:01:10;8.07;;;3.80;;
11111;SDS011;5609;49.466;8.468;2022-11-25T06:03:37;8.47;;;3.50;;
11111;SDS011;5609;49.466;8.468;2022-11-25T06:06:05;7.03;;;3.90;;
11111;SDS011;5609;49.466;8.468;2022-11-25T06:08:34;5.73;;;3.70;;
11111;SDS011;5609;49.466;8.468;2022-11-25T06:11:03;6.60;;;3.63;;
11111;SDS011;5609;49.466;8.468;2022-11-25T06:13:30;6.77;;;3.93;;
11111;SDS011;5609;49.466;8.468;2022-11-25T06:15:57;7.23;;;3.90;;
11111;SDS011;5609;49.466;8.468;2022-11-25T06:18:24;8.00;;;3.70;;
11111;SDS011;5609;49.466;8.468;2022-11-25T06:20:54;7.57;;;3.80;;
11111;SDS011;5609;49.466;8.468;2022-11-25T06:23:22;7.27;;;3.70;;
11111;SDS011;5609;49.466;8.468;2022-11-25T06:25:51;6.10;;;3.57;;
11111;SDS011;5609;49.466;8.468;2022-11-25T06:28:18;6.83;;;3.50;;
11111;SDS011;5609;49.466;8.468;2022-11-25T06:30:45;7.87;;;3.87;;
11111;SDS011;5609;49.466;8.468;2022-11-25T06:33:12;7.97;;;3.80;;
11111;SDS011;5609;49.466;8.468;2022-11-25T06:35:39;9.93;;;4.17;;
11111;SDS011;5609;49.466;8.468;2022-11-25T06:38:06;7.67;;;4.10;;
11111;SDS011;5609;49.466;8.468;2022-11-25T06:40:33;8.30;;;3.90;;
11111;SDS011;5609;49.466;8.468;2022-11-25T06:43:03;8.37;;;4.03;;
11111;SDS011;5609;49.466;8.468;2022-11-25T06:45:31;6.03;;;4.10;;
11111;SDS011;5609;49.466;8.468;2022-11-25T06:47:58;6.80;;;4.17;;
11111;SDS011;5609;49.466;8.468;2022-11-25T06:50:25;8.30;;;4.20;;
11111;SDS011;5609;49.466;8.468;2022-11-25T06:52:54;7.23;;;4.17;;
11111;SDS011;5609;49.466;8.468;2022-11-25T06:55:21;7.90;;;4.30;;
11111;SDS011;5609;49.466;8.468;2022-11-25T06:57:49;5.13;;;3.73;;
11111;SDS011;5609;49.466;8.468;2022-11-25T07:00:17;7.60;;;4.30;;
11111;SDS011;5609;49.466;8.468;2022-11-25T07:02:45;7.03;;;3.80;;
11111;SDS011;5609;49.466;8.468;2022-11-25T07:05:12;6.83;;;3.83;;
11111;SDS011;5609;49.466;8.468;2022-11-25T07:07:39;7.90;;;4.07;;
11111;SDS011;5609;49.466;8.468;2022-11-25T07:10:07;7.73;;;4.40;;
11111;SDS011;5609;49.466;8.468;2022-11-25T07:12:34;6.50;;;3.77;;
11111;SDS011;5609;49.466;8.468;2022-11-25T07:15:01;9.03;;;4.23;;
11111;SDS011;5609;49.466;8.468;2022-11-25T07:17:29;7.13;;;4.13;;
11111;SDS011;5609;49.466;8.468;2022-11-25T07:19:56;6.80;;;4.30;;
11111;SDS011;5609;49.466;8.468;2022-11-25T07:22:23;7.87;;;4.07;;
11111;SDS011;5609;49.466;8.468;2022-11-25T07:24:51;9.57;;;4.20;;
11111;SDS011;5609;49.466;8.468;2022-11-25T07:27:18;8.00;;;3.97;;
11111;SDS011;5609;49.466;8.468;2022-11-25T07:29:45;8.90;;;4.70;;
11111;SDS011;5609;49.466;8.468;2022-11-25T07:32:12;6.53;;;4.10;;
11111;SDS011;5609;49.466;8.468;2022-11-25T07:34:40;7.03;;;3.90;;
11111;SDS011;5609;49.466;8.468;2022-11-25T07:37:07;6.07;;;3.90;;
11111;SDS011;5609;49.466;8.468;2022-11-25T07:39:34;7.57;;;3.90;;
11111;SDS011;5609;49.466;8.468;2022-11-25T07:42:02;8.83;;;4.10;;
11111;SDS011;5609;49.466;8.468;2022-11-25T07:44:29;5.00;;;3.80;;
11111;SDS011;5609;49.466;8.468;2022-11-25T07:46:56;6.83;;;3.97;;
11111;SDS011;5609;49.466;8.468;2022-11-25T07:49:23;9.77;;;4.40;;
11111;SDS011;5609;49.466;8.468;2022-11-25T07:51:52;6.43;;;4.20;;
11111;SDS011;5609;49.466;8.468;2022-11-25T07:54:21;7.97;;;4.10;;
11111;SDS011;5609;49.466;8.468;2022-11-25T07:56:48;6.97;;;4.20;;
11111;SDS011;5609;49.466;8.468;2022-11-25T07:59:16;6.40;;;4.13;;
11111;SDS011;5609;49.466;8.468;2022-11-25T08:01:44;6.63;;;3.70;;
11111;SDS011;5609;49.466;8.468;2022-11-25T08:04:12;10.30;;;4.40;;
11111;SDS011;5609;49.466;8.468;2022-11-25T08:06:40;7.40;;;4.40;;
11111;SDS011;5609;49.466;8.468;2022-11-25T08:09:09;8.10;;;4.30;;
11111;SDS011;5609;49.466;8.468;2022-11-25T08:11:37;8.07;;;4.30;;
11111;SDS011;5609;49.466;8.468;2022-11-25T08:14:04;8.37;;;4.37;;
11111;SDS011;5609;49.466;8.468;2022-11-25T08:16:32;5.77;;;4.30;;
11111;SDS011;5609;49.466;8.468;2022-11-25T08:19:01;7.47;;;4.30;;
11111;SDS011;5609;49.466;8.468;2022-11-25T08:21:29;6.53;;;3.80;;
11111;SDS011;5609;49.466;8.468;2022-11-25T08:23:56;6.00;;;3.70;;
11111;SDS011;5609;49.466;8.468;2022-11-25T08:26:25;6.97;;;3.80;;
11111;SDS011;5609;49.466;8.468;2022-11-25T08:28:54;6.17;;;4.03;;
11111;SDS011;5609;49.466;8.468;2022-11-25T08:31:22;7.33;;;4.10;;
11111;SDS011;5609;49.466;8.468;2022-11-25T08:33:50;8.20;;;3.97;;
11111;SDS011;5609;49.466;8.468;2022-11-25T08:36:18;7.17;;;3.87;;
11111;SDS011;5609;49.466;8.468;2022-11-25T08:38:46;6.13;;;4.20;;
11111;SDS011;5609;49.466;8.468;2022-11-25T08:41:14;5.47;;;3.93;;
11111;SDS011;5609;49.466;8.468;2022-11-25T08:43:43;5.83;;;3.90;;
11111;SDS011;5609;49.466;8.468;2022-11-25T08:46:11;8.73;;;4.07;;
11111;SDS011;5609;49.466;8.468;2022-11-25T08:48:38;7.10;;;4.27;;
11111;SDS011;5609;49.466;8.468;2022-11-25T08:51:07;6.80;;;4.30;;
11111;SDS011;5609;49.466;8.468;2022-11-25T08:53:35;6.40;;;3.97;;
11111;SDS011;5609;49.466;8.468;2022-11-25T08:56:03;6.80;;;4.07;;
11111;SDS011;5609;49.466;8.468;2022-11-25T08:58:30;5.67;;;3.87;;
11111;SDS011;5609;49.466;8.468;2022-11-25T09:00:59;7.20;;;4.37;;
11111;SDS011;5609;49.466;8.468;2022-11-25T09:03:26;8.03;;;4.60;;
11111;SDS011;5609;49.466;8.468;2022-11-25T09:05:53;8.27;;;4.53;;
11111;SDS011;5609;49.466;8.468;2022-11-25T09:08:21;7.80;;;4.13;;
11111;SDS011;5609;49.466;8.468;2022-11-25T09:10:48;7.47;;;4.60;;
11111;SDS011;5609;49.466;8.468;2022-11-25T09:13:15;8.63;;;4.50;;
11111;SDS011;5609;49.466;8.468;2022-11-25T09:15:42;9.97;;;5.10;;
11111;SDS011;5609;49.466;8.468;2022-11-25T09:18:10;8.70;;;4.77;;
11111;SDS011;5609;49.466;8.468;2022-11-25T09:20:38;9.57;;;5.13;;
11111;SDS011;5609;49.466;8.468;2022-11-25T09:23:06;6.83;;;4.33;;
11111;SDS011;5609;49.466;8.468;2022-11-25T09:25:34;7.27;;;4.70;;
11111;SDS011;5609;49.466;8.468;2022-11-25T09:28:01;7.67;;;4.70;;
11111;SDS011;5609;49.466;8.468;2022-11-25T09:30:28;7.97;;;4.47;;
11111;SDS011;5609;49.466;8.468;2022-11-25T09:32:55;7.17;;;4.53;;
11111;SDS011;5609;49.466;8.468;2022-11-25T09:35:24;8.10;;;4.60;;
11111;SDS011;5609;49.466;8.468;2022-11-25T09:37:51;7.73;;;4.80;;
11111;SDS011;5609;49.466;8.468;2022-11-25T09:40:19;8.83;;;4.87;;
11111;SDS011;5609;49.466;8.468;2022-11-25T09:42:48;8.00;;;4.73;;
11111;SDS011;5609;49.466;8.468;2022-11-25T09:45:33;8.30;;;4.33;;
11111;SDS011;5609;49.466;8.468;2022-11-25T09:51:09;7.70;;;4.63;;
11111;SDS011;5609;49.466;8.468;2022-11-25T09:53:42;6.00;;;4.10;;
11111;SDS011;5609;49.466;8.468;2022-11-25T09:56:11;5.33;;;4.30;;
11111;SDS011;5609;49.466;8.468;2022-11-25T09:58:41;6.97;;;4.43;;
11111;SDS011;5609;49.466;8.468;2022-11-25T10:01:11;6.50;;;4.37;;
11111;SDS011;5609;49.466;8.468;2022-11-25T10:03:40;8.23;;;4.47;;
11111;SDS011;5609;49.466;8.468;2022-11-25T10:06:11;5.97;;;4.00;;
11111;SDS011;5609;49.466;8.468;2022-11-25T10:08:43;8.43;;;4.30;;
11111;SDS011;5609;49.466;8.468;2022-11-25T10:11:13;8.47;;;4.17;;
11111;SDS011;5609;49.466;8.468;2022-11-25T10:13:43;8.03;;;4.30;;
11111;SDS011;5609;49.466;8.468;2022-11-25T10:16:15;6.27;;;4.30;;
11111;SDS011;5609;49.466;8.468;2022-11-25T10:18:43;8.70;;;4.43;;
11111;SDS011;5609;49.466;8.468;2022-11-25T10:21:12;9.63;;;4.10;;
11111;SDS011;5609;49.466;8.468;2022-11-25T10:23:39;7.20;;;4.40;;
11111;SDS011;5609;49.466;8.468;2022-11-25T10:26:09;8.57;;;4.37;;
11111;SDS011;5609;49.466;8.468;2022-11-25T10:28:38;8.03;;;4.53;;
11111;SDS011;5609;49.466;8.468;2022-11-25T10:31:10;8.83;;;4.60;;
11111;SDS011;5609;49.466;8.468;2022-11-25T10:33:40;4.87;;;4.23;;
11111;SDS011;5609;49.466;8.468;2022-11-25T10:36:12;9.23;;;4.43;;
11111;SDS011;5609;49.466;8.468;2022-11-25T10:38:42;7.97;;;4.73;;
11111;SDS011;5609;49.466;8.468;2022-11-25T10:41:12;9.17;;;4.40;;
11111;SDS011;5609;49.466;8.468;2022-11-25T10:43:41;6.60;;;4.20;;
11111;SDS011;5609;49.466;8.468;2022-11-25T10:46:09;7.50;;;4.33;;
11111;SDS011;5609;49.466;8.468;2022-11-25T10:48:45;7.50;;;4.43;;
11111;SDS011;5609;49.466;8.468;2022-11-25T10:51:19;7.17;;;4.10;;
11111;SDS011;5609;49.466;8.468;2022-11-25T10:56:52;8.77;;;4.13;;
11111;SDS011;5609;49.466;8.468;2022-11-25T10:59:22;6.93;;;4.20;;
11111;SDS011;5609;49.466;8.468;2022-11-25T11:01:50;10.07;;;4.57;;
11111;SDS011;5609;49.466;8.468;2022-11-25T11:04:17;6.90;;;4.03;;
11111;SDS011;5609;49.466;8.468;2022-11-25T11:06:47;7.70;;;4.53;;
11111;SDS011;5609;49.466;8.468;2022-11-25T11:09:31;6.33;;;4.30;;
11111;SDS011;5609;49.466;8.468;2022-11-25T11:12:00;8.03;;;4.27;;
11111;SDS011;5609;49.466;8.468;2022-11-25T11:14:32;8.47;;;4.70;;
11111;SDS011;5609;49.466;8.468;2022-11-25T11:16:59;8.00;;;4.23;;
11111;SDS011;5609;49.466;8.468;2022-11-25T11:19:27;7.93;;;4.37;;
11111;SDS011;5609;49.466;8.468;2022-11-25T11:21:55;6.23;;;4.30;;
11111;SDS011;5609;49.466;8.468;2022-11-25T11:24:23;8.97;;;4.10;;
11111;SDS011;5609;49.466;8.468;2022-11-25T11:27:01;7.20;;;3.90;;
11111;SDS011;5609;49.466;8.468;2022-11-25T11:29:28;7.37;;;4.03;;
11111;SDS011;5609;49.466;8.468;2022-11-25T11:31:56;8.17;;;4.30;;
11111;SDS011;5609;49.466;8.468;2022-11-25T11:34:31;7.03;;;4.27;;
11111;SDS011;5609;49.466;8.468;2022-11-25T11:37:08;6.40;;;3.80;;
11111;SDS011;5609;49.466;8.468;2022-11-25T11:39:49;6.97;;;4.00;;
11111;SDS011;5609;49.466;8.468;2022-11-25T11:42:26;7.70;;;3.90;;
11111;SDS011;5609;49.466;8.468;2022-11-25T11:44:59;6.40;;;4.00;;
11111;SDS011;5609;49.466;8.468;2022-11-25T11:47:31;6.07;;;3.90;;
11111;SDS011;5609;49.466;8.468;2022-11-25T11:50:05;6.37;;;3.93;;
11111;SDS011;5609;49.466;8.468;2022-11-25T11:52:39;5.63;;;3.80;;
11111;SDS011;5609;49.466;8.468;2022-11-25T11:55:15;8.30;;;4.30;;
11111;SDS011;5609;49.466;8.468;2022-11-25T11:57:47;7.63;;;3.80;;
11111;SDS011;5609;49.466;8.468;2022-11-25T12:00:18;5.87;;;4.00;;
11111;SDS011;5609;49.466;8.468;2022-11-25T12:02:50;6.03;;;3.70;;
11111;SDS011;5609;49.466;8.468;2022-11-25T12:05:18;7.10;;;4.07;;
11111;SDS011;5609;49.466;8.468;2022-11-25T12:07:50;5.93;;;3.60;;
11111;SDS011;5609;49.466;8.468;2022-11-25T12:10:21;6.43;;;4.00;;
11111;SDS011;5609;49.466;8.468;2022-11-25T12:12:52;6.43;;;4.20;;
11111;SDS011;5609;49.466;8.468;2022-11-25T12:15:22;7.50;;;3.87;;
11111;SDS011;5609;49.466;8.468;2022-11-25T12:17:51;7.50;;;3.87;;
11111;SDS011;5609;49.466;8.468;2022-11-25T12:20:22;7.07;;;4.10;;
11111;SDS011;5609;49.466;8.468;2022-11-25T12:22:56;6.30;;;3.83;;
11111;SDS011;5609;49.466;8.468;2022-11-25T12:25:26;6.73;;;4.27;;
11111;SDS011;5609;49.466;8.468;2022-11-25T12:28:00;6.73;;;3.80;;
11111;SDS011;5609;49.466;8.468;2022-11-25T12:30:30;6.93;;;3.63;;
11111;SDS011;5609;49.466;8.468;2022-11-25T12:33:02;6.97;;;4.17;;
11111;SDS011;5609;49.466;8.468;2022-11-25T12:35:33;7.97;;;3.90;;
11111;SDS011;5609;49.466;8.468;2022-11-25T12:38:04;7.60;;;3.93;;
11111;SDS011;5609;49.466;8.468;2022-11-25T12:40:32;5.77;;;3.63;;
11111;SDS011;5609;49.466;8.468;2022-11-25T12:43:05;6.67;;;4.07;;
11111;SDS011;5609;49.466;8.468;2022-11-25T12:45:36;7.10;;;3.83;;
11111;SDS011;5609;49.466;8.468;2022-11-25T12:48:04;6.93;;;3.77;;
11111;SDS011;5609;49.466;8.468;2022-11-25T12:50:36;6.20;;;3.77;;
11111;SDS011;5609;49.466;8.468;2022-11-25T12:53:06;6.60;;;3.93;;
11111;SDS011;5609;49.466;8.468;2022-11-25T12:55:36;7.37;;;4.13;;
11111;SDS011;5609;49.466;8.468;2022-11-25T13:03:58;7.13;;;3.93;;
11111;SDS011;5609;49.466;8.468;2022-11-25T13:06:34;7.40;;;3.90;;
11111;SDS011;5609;49.466;8.468;2022-11-25T13:09:08;6.70;;;3.50;;
11111;SDS011;5609;49.466;8.468;2022-11-25T13:11:56;6.40;;;3.93;;
11111;SDS011;5609;49.466;8.468;2022-11-25T13:14:29;5.13;;;3.40;;
11111;SDS011;5609;49.466;8.468;2022-11-25T13:16:57;6.07;;;3.63;;
11111;SDS011;5609;49.466;8.468;2022-11-25T13:19:26;8.20;;;3.80;;
11111;SDS011;5609;49.466;8.468;2022-11-25T13:21:56;7.83;;;4.20;;
11111;SDS011;5609;49.466;8.468;2022-11-25T13:24:25;8.03;;;3.93;;
11111;SDS011;5609;49.466;8.468;2022-11-25T13:26:53;6.67;;;4.10;;
11111;SDS011;5609;49.466;8.468;2022-11-25T13:34:50;6.60;;;3.43;;
11111;SDS011;5609;49.466;8.468;2022-11-25T13:37:37;6.77;;;3.60;;
11111;SDS011;5609;49.466;8.468;2022-11-25T13:40:18;7.87;;;3.50;;
11111;SDS011;5609;49.466;8.468;2022-11-25T13:42:45;5.83;;;3.50;;
11111;SDS011;5609;49.466;8.468;2022-11-25T13:45:23;7.10;;;3.77;;
11111;SDS011;5609;49.466;8.468;2022-11-25T13:47:51;7.83;;;4.07;;
11111;SDS011;5609;49.466;8.468;2022-11-25T13:50:21;8.10;;;3.60;;
11111;SDS011;5609;49.466;8.468;2022-11-25T13:52:49;5.90;;;3.60;;
11111;SDS011;5609;49.466;8.468;2022-11-25T13:55:24;6.37;;;3.67;;
11111;SDS011;5609;49.466;8.468;2022-11-25T13:58:01;6.17;;;3.90;;
11111;SDS011;5609;49.466;8.468;2022-11-25T14:00:42;6.80;;;3.73;;
11111;SDS011;5609;49.466;8.468;2022-11-25T14:05:59;6.93;;;3.60;;
11111;SDS011;5609;49.466;8.468;2022-11-25T14:08:32;7.20;;;3.40;;
11111;SDS011;5609;49.466;8.468;2022-11-25T14:11:07;5.73;;;3.70;;
11111;SDS011;5609;49.466;8.468;2022-11-25T14:16:29;4.83;;;3.50;;
11111;SDS011;5609;49.466;8.468;2022-11-25T14:19:21;5.80;;;3.30;;
11111;SDS011;5609;49.466;8.468;2022-11-25T14:21:57;5.87;;;3.53;;
11111;SDS011;5609;49.466;8.468;2022-11-25T14:24:31;7.83;;;3.93;;
11111;SDS011;5609;49.466;8.468;2022-11-25T14:27:00;9.00;;;3.60;;
11111;SDS011;5609;49.466;8.468;2022-11-25T14:29:28;7.07;;;3.60;;
11111;SDS011;5609;49.466;8.468;2022-11-25T14:31:57;7.43;;;3.60;;
11111;SDS011;5609;49.466;8.468;2022-11-25T14:34:26;7.33;;;4.00;;
11111;SDS011;5609;49.466;8.468;2022-11-25T14:36:57;6.87;;;3.70;;
11111;SDS011;5609;49.466;8.468;2022-11-25T14:39:27;6.47;;;3.47;;
11111;SDS011;5609;49.466;8.468;2022-11-25T14:41:57;7.07;;;3.80;;
11111;SDS011;5609;49.466;8.468;2022-11-25T14:44:27;6.33;;;3.30;;
11111;SDS011;5609;49.466;8.468;2022-11-25T14:46:56;5.70;;;3.33;;
11111;SDS011;5609;49.466;8.468;2022-11-25T14:49:23;6.67;;;3.50;;
11111;SDS011;5609;49.466;8.468;2022-11-25T14:51:50;6.20;;;3.73;;
11111;SDS011;5609;49.466;8.468;2022-11-25T14:54:19;8.07;;;3.63;;
11111;SDS011;5609;49.466;8.468;2022-11-25T14:56:47;6.87;;;3.50;;
11111;SDS011;5609;49.466;8.468;2022-11-25T14:59:14;5.83;;;3.60;;
11111;SDS011;5609;49.466;8.468;2022-11-25T15:01:49;6.33;;;3.83;;
11111;SDS011;5609;49.466;8.468;2022-11-25T15:04:17;7.10;;;3.80;;
11111;SDS011;5609;49.466;8.468;2022-11-25T15:06:46;7.17;;;3.63;;
11111;SDS011;5609;49.466;8.468;2022-11-25T15:09:16;6.70;;;3.80;;
11111;SDS011;5609;49.466;8.468;2022-11-25T15:11:45;5.70;;;3.53;;
11111;SDS011;5609;49.466;8.468;2022-11-25T15:14:14;7.43;;;5.00;;
11111;SDS011;5609;49.466;8.468;2022-11-25T15:16:43;6.17;;;3.90;;
11111;SDS011;5609;49.466;8.468;2022-11-25T15:19:13;5.83;;;3.90;;
11111;SDS011;5609;49.466;8.468;2022-11-25T15:21:42;8.77;;;4.50;;
11111;SDS011;5609;49.466;8.468;2022-11-25T15:24:18;9.67;;;4.07;;
11111;SDS011;5609;49.466;8.468;2022-11-25T15:26:51;8.00;;;4.27;;
11111;SDS011;5609;49.466;8.468;2022-11-25T15:29:18;7.30;;;4.30;;
11111;SDS011;5609;49.466;8.468;2022-11-25T15:31:46;6.67;;;4.00;;
11111;SDS011;5609;49.466;8.468;2022-11-25T15:34:14;7.77;;;4.20;;